Time;durP1;ratioP1;P1;durP2;ratioP2;P2;SDS_P1;SDS_P2;PMS_P1;PMS_P2;Temp;Humidity;BMP_temperature;BMP_pressure;BME280_temperature;BME280_humidity;BME280_pressure;Samples;Min_cycle;Max_cycle;Signal;HPM_P1;HPM_P2
2022/01/29 00:00:09;;;;;;;25.17;12.15;;;7.30;99.90;;;;;;5045220;28;20542;-66
2022/01/29 00:02:35;;;;;;;27.13;10.90;;;7.40;99.90;;;;;;5052577;28;20080;-66
2022/01/29 00:05:00;;;;;;;30.45;11.55;;;7.40;99.90;;;;;;5048642;28;20142;-66
2022/01/29 00:07:26;;;;;;;33.38;12.20;;;7.40;99.90;;;;;;5049919;28;20056;-66
2022/01/29 00:09:53;;;;;;;27.58;10.63;;;7.40;99.90;;;;;;5051203;28;20045;-66
2022/01/29 00:12:19;;;;;;;27.13;11.43;;;7.40;99.90;;;;;;5051059;28;20041;-66
2022/01/29 00:14:44;;;;;;;28.88;10.95;;;7.50;99.90;;;;;;5049509;28;20118;-66
2022/01/29 00:17:13;;;;;;;20.27;9.00;;;7.50;99.90;;;;;;5051607;28;20041;-66
2022/01/29 00:19:40;;;;;;;24.23;11.05;;;7.60;99.90;;;;;;5048280;28;20391;-67
2022/01/29 00:22:06;;;;;;;28.13;11.50;;;7.50;99.90;;;;;;5049804;28;20143;-66
2022/01/29 00:24:32;;;;;;;22.23;9.40;;;7.60;99.90;;;;;;5048917;28;20126;-66
2022/01/29 00:26:58;;;;;;;27.38;11.50;;;7.60;99.90;;;;;;5043364;28;20459;-66
2022/01/29 00:29:23;;;;;;;29.95;12.77;;;7.60;99.90;;;;;;5046643;28;20412;-66
2022/01/29 00:31:49;;;;;;;23.65;11.27;;;7.60;99.90;;;;;;5049463;28;20052;-66
2022/01/29 00:34:15;;;;;;;23.95;12.00;;;7.60;99.90;;;;;;5048027;28;20040;-66
2022/01/29 00:36:40;;;;;;;29.48;12.32;;;7.60;99.90;;;;;;5049717;28;20427;-65
2022/01/29 00:39:06;;;;;;;27.95;10.95;;;7.60;99.90;;;;;;5030820;28;20049;-65
2022/01/29 00:41:32;;;;;;;27.50;12.88;;;7.60;99.90;;;;;;5048298;28;20048;-65
2022/01/29 00:43:58;;;;;;;25.00;11.18;;;7.60;99.90;;;;;;5050551;28;20037;-65
2022/01/29 00:46:23;;;;;;;29.92;12.93;;;7.60;99.90;;;;;;5049609;28;20059;-65
2022/01/29 00:48:49;;;;;;;28.27;12.75;;;7.50;99.90;;;;;;5047267;28;20451;-65
2022/01/29 00:51:14;;;;;;;26.05;11.82;;;7.50;99.90;;;;;;5050880;28;20044;-66
2022/01/29 00:53:40;;;;;;;23.45;10.50;;;7.60;99.90;;;;;;5048463;28;20501;-67
2022/01/29 00:56:07;;;;;;;29.65;12.52;;;7.60;99.90;;;;;;5050330;28;20516;-67
2022/01/29 00:58:33;;;;;;;26.27;11.93;;;7.60;99.90;;;;;;5045814;28;20048;-67
2022/01/29 01:01:00;;;;;;;25.38;12.82;;;7.60;99.90;;;;;;5049731;28;20484;-64
2022/01/29 01:03:26;;;;;;;25.88;12.30;;;7.60;99.90;;;;;;5047258;28;20389;-65
2022/01/29 01:05:51;;;;;;;23.60;11.38;;;7.70;99.90;;;;;;5049152;28;20041;-65
2022/01/29 01:08:17;;;;;;;25.98;12.45;;;7.70;99.90;;;;;;5049245;28;20115;-65
2022/01/29 01:10:43;;;;;;;24.55;12.15;;;7.70;99.90;;;;;;5032920;28;20041;-65
2022/01/29 01:13:08;;;;;;;30.67;13.07;;;7.70;99.90;;;;;;5049506;28;20044;-65
2022/01/29 01:15:34;;;;;;;28.35;12.77;;;7.70;99.90;;;;;;5049014;28;20104;-65
2022/01/29 01:18:00;;;;;;;28.67;13.75;;;7.70;99.90;;;;;;5049218;28;20062;-65
2022/01/29 01:20:26;;;;;;;28.98;12.50;;;7.70;99.90;;;;;;5049006;28;20080;-65
2022/01/29 01:22:51;;;;;;;26.70;12.40;;;7.70;99.90;;;;;;5048794;28;20040;-65
2022/01/29 01:25:17;;;;;;;32.72;13.75;;;7.80;99.90;;;;;;5050010;28;20044;-65
2022/01/29 01:27:43;;;;;;;29.70;13.40;;;7.90;99.90;;;;;;5045013;28;20063;-65
2022/01/29 01:30:09;;;;;;;22.75;11.63;;;7.80;99.90;;;;;;5048720;28;20045;-65
2022/01/29 01:32:35;;;;;;;37.75;14.45;;;7.90;99.90;;;;;;5049777;28;20057;-65
2022/01/29 01:35:38;;;;;;;29.35;13.23;;;7.90;99.90;;;;;;5046169;28;20041;-65
2022/01/29 01:37:58;;;;;;;29.13;13.80;;;7.90;99.90;;;;;;5046140;28;20401;-65
2022/01/29 01:40:25;;;;;;;32.33;13.35;;;7.90;99.90;;;;;;5049180;28;20420;-65
2022/01/29 01:42:58;;;;;;;29.08;13.20;;;7.90;99.90;;;;;;5048737;28;20067;-65
2022/01/29 01:45:23;;;;;;;28.63;14.25;;;7.90;99.90;;;;;;5047759;28;20044;-65
2022/01/29 01:47:49;;;;;;;29.38;14.02;;;7.90;99.90;;;;;;5047208;28;20128;-65
2022/01/29 01:50:15;;;;;;;35.10;14.45;;;7.90;99.90;;;;;;5047688;28;20045;-65
2022/01/29 01:52:41;;;;;;;29.52;11.95;;;8.00;99.90;;;;;;5048556;28;20501;-65
2022/01/29 01:55:07;;;;;;;32.83;14.80;;;7.90;99.90;;;;;;5029563;28;20443;-65
2022/01/29 01:57:32;;;;;;;32.53;14.85;;;7.90;99.90;;;;;;5047517;28;20056;-65
2022/01/29 01:59:58;;;;;;;27.10;12.43;;;7.90;99.90;;;;;;5047267;28;20474;-65
2022/01/29 02:02:24;;;;;;;25.95;12.55;;;8.00;99.90;;;;;;5049226;28;20478;-67
2022/01/29 02:04:49;;;;;;;29.90;13.52;;;8.00;99.90;;;;;;5045900;28;20041;-67
2022/01/29 02:07:17;;;;;;;39.08;13.80;;;8.00;99.90;;;;;;5049268;28;20090;-65
2022/01/29 02:09:43;;;;;;;26.83;12.38;;;8.00;99.90;;;;;;5047479;28;20033;-67
2022/01/29 02:12:10;;;;;;;29.25;14.30;;;8.00;99.90;;;;;;5048484;28;20509;-67
2022/01/29 02:14:37;;;;;;;31.20;12.95;;;8.00;99.90;;;;;;5047530;28;20033;-67
2022/01/29 02:17:04;;;;;;;31.42;12.48;;;8.10;99.90;;;;;;5049425;28;20129;-64
2022/01/29 02:19:30;;;;;;;33.83;13.50;;;8.10;99.90;;;;;;5045920;28;20029;-67
2022/01/29 02:21:57;;;;;;;31.10;13.35;;;8.10;99.90;;;;;;5049034;28;20124;-67
2022/01/29 02:24:23;;;;;;;27.50;13.45;;;8.20;99.90;;;;;;5048066;28;20485;-64
2022/01/29 02:26:49;;;;;;;32.05;12.80;;;8.20;99.90;;;;;;5047346;28;20041;-65
2022/01/29 02:29:16;;;;;;;30.55;13.57;;;8.20;99.90;;;;;;5048045;28;20048;-65
2022/01/29 02:31:55;;;;;;;30.20;11.95;;;8.20;99.90;;;;;;5050888;28;20073;-65
2022/01/29 02:34:22;;;;;;;32.78;12.50;;;8.20;99.90;;;;;;5047405;28;20393;-65
2022/01/29 02:36:48;;;;;;;28.63;11.88;;;8.20;99.90;;;;;;5029482;28;20140;-65
2022/01/29 02:39:17;;;;;;;29.17;11.68;;;8.20;99.90;;;;;;5047682;28;20052;-64
2022/01/29 02:41:44;;;;;;;28.25;13.38;;;8.20;99.90;;;;;;5048035;28;20053;-65
2022/01/29 02:44:14;;;;;;;29.60;12.27;;;8.20;99.90;;;;;;5046886;28;20033;-65
2022/01/29 02:49:08;;;;;;;32.17;12.38;;;8.30;99.90;;;;;;5044179;28;20405;-65
2022/01/29 02:51:34;;;;;;;34.25;13.48;;;8.30;99.90;;;;;;5045009;28;20037;-64
2022/01/29 02:54:00;;;;;;;35.42;13.77;;;8.30;99.90;;;;;;5047507;28;20033;-65
2022/01/29 02:56:26;;;;;;;28.70;11.35;;;8.30;99.90;;;;;;5050533;28;20045;-65
2022/01/29 02:58:51;;;;;;;32.00;12.32;;;8.30;99.90;;;;;;5045931;28;20054;-65
2022/01/29 03:01:18;;;;;;;30.60;12.52;;;9.50;99.90;;;;;;5048384;28;20063;-65
2022/01/29 03:03:44;;;;;;;29.73;12.90;;;8.40;99.90;;;;;;5045823;28;20048;-65
2022/01/29 03:06:10;;;;;;;24.65;12.00;;;8.40;99.90;;;;;;5048725;28;20441;-65
2022/01/29 03:08:37;;;;;;;27.52;12.57;;;8.40;99.90;;;;;;5046466;28;20489;-65
2022/01/29 03:11:03;;;;;;;31.75;11.38;;;8.50;99.90;;;;;;5048190;28;20397;-65
2022/01/29 03:13:29;;;;;;;27.52;12.07;;;8.50;99.90;;;;;;5046908;28;20091;-65
2022/01/29 03:15:55;;;;;;;36.45;13.32;;;8.40;99.90;;;;;;5047230;28;20083;-65
2022/01/29 03:18:20;;;;;;;27.20;11.77;;;8.50;99.90;;;;;;5046402;28;20052;-65
2022/01/29 03:20:46;;;;;;;26.23;12.65;;;8.50;99.90;;;;;;5034235;28;20508;-65
2022/01/29 03:23:13;;;;;;;22.70;11.02;;;8.40;99.90;;;;;;5036530;28;20032;-65
2022/01/29 03:25:39;;;;;;;25.60;12.52;;;8.50;99.90;;;;;;5050021;28;20040;-65
2022/01/29 03:28:04;;;;;;;21.33;10.30;;;8.50;99.90;;;;;;5058288;28;20080;-65
2022/01/29 03:30:30;;;;;;;27.95;12.48;;;8.50;99.90;;;;;;5037433;28;20393;-65
2022/01/29 03:32:56;;;;;;;25.67;11.90;;;8.50;99.90;;;;;;5048024;28;20088;-65
2022/01/29 03:35:21;;;;;;;32.88;12.18;;;8.50;99.90;;;;;;5047472;28;20041;-64
2022/01/29 03:37:47;;;;;;;29.02;13.05;;;8.60;99.90;;;;;;5050259;28;20041;-65
2022/01/29 03:40:12;;;;;;;26.58;12.25;;;8.60;99.90;;;;;;5051953;28;20045;-65
2022/01/29 03:42:56;;;;;;;25.27;11.75;;;8.50;99.90;;;;;;5051371;28;20048;-65
2022/01/29 03:45:22;;;;;;;25.05;11.77;;;8.50;99.90;;;;;;5046381;28;20045;-65
2022/01/29 03:47:47;;;;;;;26.42;12.88;;;8.60;99.90;;;;;;5051854;28;20114;-65
2022/01/29 03:50:13;;;;;;;27.63;11.68;;;8.60;99.90;;;;;;5041458;28;20056;-65
2022/01/29 03:52:39;;;;;;;25.20;12.05;;;8.60;99.90;;;;;;5051995;28;20064;-65
2022/01/29 03:55:05;;;;;;;27.75;11.93;;;8.60;99.90;;;;;;5050949;28;20498;-65
2022/01/29 03:57:31;;;;;;;28.65;12.30;;;8.60;99.90;;;;;;5047508;28;20061;-66
2022/01/29 03:59:57;;;;;;;23.40;11.63;;;8.60;99.90;;;;;;5049437;28;20107;-65
2022/01/29 04:02:22;;;;;;;29.45;12.20;;;8.70;99.90;;;;;;5051716;28;20094;-65
2022/01/29 04:04:48;;;;;;;17.15;8.13;;;8.70;99.90;;;;;;5031198;28;20041;-65
2022/01/29 04:07:14;;;;;;;28.88;12.75;;;8.70;99.90;;;;;;5052089;28;20084;-66
2022/01/29 04:09:46;;;;;;;24.77;12.25;;;8.70;99.90;;;;;;5049313;28;20124;-67
2022/01/29 04:12:13;;;;;;;28.67;11.77;;;8.70;99.90;;;;;;5048976;28;20477;-65
2022/01/29 04:14:39;;;;;;;27.75;13.05;;;8.70;99.90;;;;;;5049099;28;20053;-65
2022/01/29 04:17:05;;;;;;;25.83;12.73;;;8.70;99.90;;;;;;5050790;28;20045;-65
2022/01/29 04:19:31;;;;;;;28.27;13.65;;;8.70;99.90;;;;;;5048483;28;20045;-65
2022/01/29 04:21:57;;;;;;;30.55;13.57;;;8.70;99.90;;;;;;5052011;28;20140;-65
2022/01/29 04:24:23;;;;;;;32.92;12.25;;;8.70;99.90;;;;;;5049558;28;20080;-65
2022/01/29 04:26:49;;;;;;;33.03;13.52;;;8.70;99.90;;;;;;5050882;28;20045;-65
2022/01/29 04:29:15;;;;;;;29.25;11.98;;;8.70;99.90;;;;;;5051735;28;20098;-65
2022/01/29 04:32:09;;;;;;;24.80;13.05;;;8.70;99.90;;;;;;5050240;28;20047;-65
2022/01/29 04:34:26;;;;;;;25.27;12.38;;;8.80;99.90;;;;;;5048723;28;20493;-67
2022/01/29 04:36:52;;;;;;;25.15;12.02;;;8.70;99.90;;;;;;5049704;28;20059;-65
2022/01/29 04:39:18;;;;;;;27.55;13.05;;;8.80;99.90;;;;;;5049034;28;20127;-65
2022/01/29 04:41:43;;;;;;;29.15;12.48;;;8.80;99.90;;;;;;5050758;28;20056;-65
2022/01/29 04:44:09;;;;;;;21.40;11.68;;;8.80;99.90;;;;;;5050273;28;20545;-65
2022/01/29 04:46:34;;;;;;;29.75;13.70;;;8.80;99.90;;;;;;5049321;28;20045;-65
2022/01/29 04:49:00;;;;;;;23.50;12.85;;;8.80;99.90;;;;;;5048701;28;20051;-65
2022/01/29 04:51:25;;;;;;;24.98;13.02;;;8.80;99.90;;;;;;5048770;28;20048;-65
2022/01/29 04:53:51;;;;;;;27.65;13.27;;;8.80;99.90;;;;;;5049387;28;20045;-65
2022/01/29 04:56:17;;;;;;;25.23;13.35;;;8.80;99.90;;;;;;5050558;28;20090;-65
2022/01/29 04:58:42;;;;;;;24.15;12.43;;;8.80;99.90;;;;;;5045622;28;20044;-65
2022/01/29 05:01:08;;;;;;;20.08;10.02;;;8.90;99.90;;;;;;5049322;28;20464;-65
2022/01/29 05:03:34;;;;;;;23.67;11.15;;;8.90;99.90;;;;;;5047826;28;20401;-66
2022/01/29 05:06:00;;;;;;;21.77;10.73;;;8.90;99.90;;;;;;5050716;28;20047;-65
2022/01/29 05:08:26;;;;;;;25.48;13.82;;;8.90;99.90;;;;;;5047393;28;20374;-65
2022/01/29 05:10:53;;;;;;;24.67;12.57;;;8.90;99.90;;;;;;5050207;28;20040;-65
2022/01/29 05:13:22;;;;;;;28.05;12.95;;;8.90;99.90;;;;;;5050316;28;20045;-66
2022/01/29 05:16:07;;;;;;;23.92;12.23;;;8.90;99.90;;;;;;5050692;28;20453;-65
2022/01/29 05:27:02;;;;;;;17.63;10.07;;;9.00;99.90;;;;;;5049130;28;20553;-65
2022/01/29 05:29:30;;;;;;;24.15;12.23;;;9.00;99.90;;;;;;5062302;28;20132;-65
2022/01/29 05:32:00;;;;;;;28.67;13.40;;;9.00;99.90;;;;;;5050555;28;20563;-65
2022/01/29 05:34:26;;;;;;;23.55;11.60;;;9.00;99.90;;;;;;5036171;28;20045;-65
2022/01/29 05:36:53;;;;;;;18.85;9.15;;;9.00;99.90;;;;;;5049122;28;20385;-65
2022/01/29 05:39:20;;;;;;;24.67;12.85;;;9.10;99.90;;;;;;5049617;28;20320;-65
2022/01/29 05:41:46;;;;;;;22.42;12.88;;;9.00;99.90;;;;;;5048263;28;20056;-65
2022/01/29 05:44:11;;;;;;;25.42;13.23;;;9.00;99.90;;;;;;5047709;28;20041;-65
2022/01/29 05:46:39;;;;;;;20.60;10.20;;;9.00;99.90;;;;;;5048962;28;20455;-65
2022/01/29 05:49:04;;;;;;;24.63;12.85;;;9.00;99.90;;;;;;5039955;28;20045;-65
2022/01/29 05:51:31;;;;;;;21.17;11.57;;;9.00;99.90;;;;;;5049090;28;20045;-65
2022/01/29 05:54:00;;;;;;;28.08;13.85;;;9.00;99.90;;;;;;5048600;28;20041;-65
2022/01/29 05:56:27;;;;;;;22.42;10.98;;;9.10;99.90;;;;;;5047842;28;20084;-65
2022/01/29 05:58:53;;;;;;;25.95;13.48;;;9.00;99.90;;;;;;5047168;28;20099;-65
2022/01/29 06:01:19;;;;;;;25.90;12.15;;;9.10;99.90;;;;;;5047958;28;20041;-65
2022/01/29 06:03:46;;;;;;;25.70;14.20;;;9.00;99.90;;;;;;5046265;28;20461;-65
2022/01/29 06:06:11;;;;;;;26.02;11.93;;;9.10;99.90;;;;;;5048912;28;20537;-65
2022/01/29 06:08:37;;;;;;;24.95;13.57;;;9.10;99.90;;;;;;5047230;28;20136;-65
2022/01/29 06:11:03;;;;;;;20.85;11.77;;;9.10;99.90;;;;;;5048361;28;20306;-65
2022/01/29 06:13:29;;;;;;;24.80;13.38;;;9.10;99.90;;;;;;5048923;28;20080;-65
2022/01/29 06:15:54;;;;;;;24.65;13.02;;;9.10;99.90;;;;;;5050364;28;20520;-65
2022/01/29 06:18:22;;;;;;;24.33;12.38;;;9.10;99.90;;;;;;5048355;28;20445;-65
2022/01/29 06:20:51;;;;;;;29.88;13.13;;;9.10;99.90;;;;;;5047642;28;20454;-65
2022/01/29 06:23:20;;;;;;;22.13;11.20;;;9.10;99.90;;;;;;5047091;28;20132;-65
2022/01/29 06:25:46;;;;;;;25.05;13.52;;;9.20;99.90;;;;;;5046888;28;20132;-65
2022/01/29 06:28:11;;;;;;;21.63;12.10;;;9.20;99.90;;;;;;5048003;28;20049;-65
2022/01/29 06:30:37;;;;;;;20.67;11.95;;;9.20;99.90;;;;;;5047937;28;20036;-67
2022/01/29 06:33:11;;;;;;;24.13;12.85;;;9.20;99.90;;;;;;5047584;28;20045;-65
2022/01/29 06:35:38;;;;;;;24.27;13.27;;;9.20;99.90;;;;;;5048134;28;20727;-65
2022/01/29 06:38:05;;;;;;;21.85;11.00;;;9.20;99.90;;;;;;5046388;28;20050;-65
2022/01/29 06:40:31;;;;;;;19.95;10.48;;;9.20;99.90;;;;;;5048418;28;20449;-65
2022/01/29 06:42:56;;;;;;;19.27;12.05;;;9.30;99.90;;;;;;5048702;28;20141;-65
2022/01/29 06:45:23;;;;;;;20.42;12.38;;;9.30;99.90;;;;;;5047271;28;20111;-65
2022/01/29 06:47:50;;;;;;;22.65;11.98;;;9.30;99.90;;;;;;5047171;28;20393;-65
2022/01/29 06:50:15;;;;;;;25.08;11.13;;;9.30;99.90;;;;;;5029281;28;20076;-65
2022/01/29 06:52:41;;;;;;;22.00;11.77;;;9.30;99.90;;;;;;5047916;28;20084;-65
2022/01/29 06:55:07;;;;;;;17.65;10.52;;;9.20;99.90;;;;;;5047759;28;20049;-65
2022/01/29 06:57:32;;;;;;;16.80;10.30;;;9.30;99.90;;;;;;5047760;28;20045;-65
2022/01/29 06:59:58;;;;;;;27.33;12.10;;;9.20;99.90;;;;;;5046824;28;20045;-66
2022/01/29 07:02:23;;;;;;;24.90;11.43;;;9.30;99.90;;;;;;5048347;28;20393;-65
2022/01/29 07:04:49;;;;;;;17.92;9.23;;;9.20;99.90;;;;;;5046084;28;20048;-65
2022/01/29 07:07:15;;;;;;;20.58;8.90;;;9.20;99.90;;;;;;5047486;28;20044;-65
2022/01/29 07:09:40;;;;;;;22.67;11.65;;;9.20;99.90;;;;;;5046665;28;20122;-65
2022/01/29 07:12:10;;;;;;;19.80;10.18;;;9.20;99.90;;;;;;5070920;28;20052;-65
2022/01/29 07:14:39;;;;;;;17.45;10.10;;;9.20;99.90;;;;;;5054660;28;20044;-65
2022/01/29 07:17:09;;;;;;;19.67;10.63;;;9.20;99.90;;;;;;5040660;28;20060;-65
2022/01/29 07:19:35;;;;;;;22.52;12.48;;;9.20;99.90;;;;;;5052603;28;20033;-65
2022/01/29 07:22:01;;;;;;;22.13;10.60;;;9.90;99.90;;;;;;5055578;28;20448;-65
2022/01/29 07:24:26;;;;;;;22.75;11.70;;;9.20;99.90;;;;;;5054780;28;20485;-65
2022/01/29 07:26:52;;;;;;;20.67;10.70;;;9.20;99.90;;;;;;5055477;28;20081;-65
2022/01/29 07:29:18;;;;;;;18.52;11.05;;;9.20;99.90;;;;;;5053603;28;20553;-65
2022/01/29 07:31:43;;;;;;;20.33;11.85;;;9.20;99.90;;;;;;5052392;28;20393;-65
2022/01/29 07:34:09;;;;;;;18.23;10.57;;;9.20;99.90;;;;;;5052747;28;20053;-65
2022/01/29 07:36:34;;;;;;;21.33;11.50;;;9.30;99.90;;;;;;5054121;28;20041;-65
2022/01/29 07:39:00;;;;;;;19.45;9.77;;;9.30;99.90;;;;;;5053948;28;20540;-65
2022/01/29 07:41:25;;;;;;;20.35;10.50;;;9.30;99.90;;;;;;5054259;28;20067;-67
2022/01/29 07:43:51;;;;;;;18.77;10.40;;;9.30;99.90;;;;;;5055419;28;20453;-65
2022/01/29 07:46:16;;;;;;;15.93;7.85;;;9.30;99.90;;;;;;5055118;28;20114;-65
2022/01/29 07:48:43;;;;;;;14.07;9.25;;;9.30;99.90;;;;;;5043240;28;20106;-65
2022/01/29 07:51:09;;;;;;;16.67;10.18;;;9.30;99.90;;;;;;5056314;28;20135;-65
2022/01/29 07:53:34;;;;;;;18.25;10.20;;;9.30;99.90;;;;;;5054846;28;20120;-65
2022/01/29 07:56:00;;;;;;;17.25;9.73;;;9.30;99.90;;;;;;5052101;28;20559;-65
2022/01/29 07:58:26;;;;;;;20.42;9.60;;;9.30;99.90;;;;;;5053271;28;20475;-65
2022/01/29 08:00:51;;;;;;;20.30;10.10;;;9.30;99.90;;;;;;5054313;28;20102;-65
2022/01/29 08:03:17;;;;;;;17.30;9.73;;;9.30;99.90;;;;;;5051713;28;20043;-65
2022/01/29 08:05:42;;;;;;;20.73;9.52;;;9.20;99.90;;;;;;5056655;28;20052;-65
2022/01/29 08:08:08;;;;;;;23.52;11.02;;;9.20;99.90;;;;;;5055566;28;20497;-65
2022/01/29 08:10:34;;;;;;;21.60;10.05;;;9.20;99.90;;;;;;5055010;28;20029;-65
2022/01/29 08:12:59;;;;;;;18.83;9.98;;;9.20;99.90;;;;;;5057011;28;20092;-65
2022/01/29 08:15:25;;;;;;;20.25;9.98;;;9.20;99.90;;;;;;5048143;28;20044;-67
2022/01/29 08:17:50;;;;;;;20.58;9.77;;;9.30;99.90;;;;;;5033546;28;20045;-65
2022/01/29 08:20:16;;;;;;;16.88;9.20;;;9.30;99.90;;;;;;5032877;28;20048;-65
2022/01/29 08:22:42;;;;;;;14.02;7.95;;;9.30;99.90;;;;;;5030796;28;20120;-66
2022/01/29 08:25:08;;;;;;;16.23;8.23;;;9.40;99.90;;;;;;5030621;28;20046;-65
2022/01/29 08:27:33;;;;;;;16.50;8.63;;;9.40;99.90;;;;;;5030917;28;20052;-65
2022/01/29 08:29:59;;;;;;;15.05;7.93;;;9.40;99.90;;;;;;5035345;28;20036;-67
2022/01/29 08:32:24;;;;;;;16.08;8.38;;;9.40;99.90;;;;;;5049227;28;20400;-67
2022/01/29 08:34:50;;;;;;;12.07;6.97;;;9.50;99.90;;;;;;5049223;28;20477;-67
2022/01/29 08:37:15;;;;;;;15.20;7.63;;;9.50;99.90;;;;;;5051625;28;20063;-67
2022/01/29 08:39:41;;;;;;;18.23;6.63;;;9.40;99.90;;;;;;5049385;28;20156;-67
2022/01/29 08:42:08;;;;;;;16.23;7.03;;;9.50;99.90;;;;;;5051577;28;20123;-67
2022/01/29 08:44:34;;;;;;;14.05;7.20;;;9.60;99.90;;;;;;5048605;28;20049;-66
2022/01/29 08:47:00;;;;;;;15.43;7.63;;;10.30;99.90;;;;;;5051076;28;20048;-66
2022/01/29 08:49:25;;;;;;;11.50;5.95;;;9.60;99.90;;;;;;5048969;28;20049;-66
2022/01/29 08:51:52;;;;;;;13.00;7.10;;;10.70;99.90;;;;;;5048827;28;20052;-66
2022/01/29 08:54:17;;;;;;;17.92;5.95;;;9.70;99.90;;;;;;5050388;28;20045;-66
2022/01/29 08:56:44;;;;;;;12.27;6.70;;;9.70;99.90;;;;;;5047083;28;20045;-66
2022/01/29 08:59:10;;;;;;;13.30;6.47;;;9.70;99.90;;;;;;5040255;28;20469;-66
2022/01/29 09:01:36;;;;;;;9.05;4.85;;;9.80;99.90;;;;;;5048483;28;20038;-66
2022/01/29 09:04:02;;;;;;;10.23;5.32;;;10.70;99.90;;;;;;5027974;28;20128;-66
2022/01/29 09:06:27;;;;;;;11.55;5.10;;;9.90;99.90;;;;;;5030615;28;20053;-66
2022/01/29 09:08:53;;;;;;;10.18;5.35;;;9.90;99.90;;;;;;5029936;28;20343;-67
2022/01/29 09:11:19;;;;;;;13.13;4.90;;;9.90;99.90;;;;;;5030298;28;20060;-67
2022/01/29 09:13:45;;;;;;;10.07;4.95;;;10.00;99.90;;;;;;5032878;28;20554;-67
2022/01/29 09:16:12;;;;;;;10.13;4.88;;;10.00;99.90;;;;;;5049525;28;20509;-67
2022/01/29 09:18:38;;;;;;;10.13;4.60;;;10.00;99.90;;;;;;5047498;28;20494;-68
2022/01/29 09:21:03;;;;;;;10.73;4.82;;;10.00;99.90;;;;;;5050397;28;20106;-67
2022/01/29 09:23:29;;;;;;;13.68;5.25;;;10.00;99.90;;;;;;5047173;28;20041;-67
2022/01/29 09:25:55;;;;;;;9.40;4.60;;;10.00;99.90;;;;;;5047845;28;20052;-67
2022/01/29 09:28:22;;;;;;;12.25;4.88;;;10.00;99.90;;;;;;5049448;28;20051;-67
2022/01/29 09:30:49;;;;;;;11.85;5.20;;;10.00;99.90;;;;;;5047526;28;20055;-66
2022/01/29 09:33:15;;;;;;;10.88;5.07;;;10.30;99.90;;;;;;5043094;28;20060;-67
2022/01/29 09:35:42;;;;;;;11.07;5.20;;;10.10;99.90;;;;;;5049508;28;20099;-66
2022/01/29 09:38:09;;;;;;;11.10;4.32;;;10.10;99.90;;;;;;5049213;28;20152;-65
2022/01/29 09:40:35;;;;;;;8.23;4.47;;;10.20;99.90;;;;;;5048471;28;20045;-66
2022/01/29 09:43:02;;;;;;;10.00;4.38;;;10.20;99.90;;;;;;5049971;28;20037;-66
2022/01/29 09:45:29;;;;;;;9.90;3.80;;;10.20;99.90;;;;;;5049381;28;20394;-66
2022/01/29 09:48:01;;;;;;;11.80;3.78;;;10.20;99.90;;;;;;5041206;28;20045;-66
2022/01/29 09:50:30;;;;;;;7.55;3.78;;;10.30;99.90;;;;;;5047578;28;20090;-66
2022/01/29 09:52:56;;;;;;;10.43;3.90;;;10.20;99.90;;;;;;5049750;28;20360;-67
2022/01/29 09:55:23;;;;;;;6.97;3.45;;;10.20;99.90;;;;;;5048626;28;20041;-66
2022/01/29 09:57:48;;;;;;;11.05;4.07;;;10.20;99.90;;;;;;5030500;28;20462;-66
2022/01/29 10:00:14;;;;;;;10.35;4.03;;;10.20;99.90;;;;;;5048137;28;20063;-66
2022/01/29 10:02:40;;;;;;;11.65;3.50;;;10.30;99.90;;;;;;5049389;28;20040;-67
2022/01/29 10:05:08;;;;;;;7.03;3.53;;;10.30;99.90;;;;;;5049595;28;20048;-66
2022/01/29 10:07:34;;;;;;;10.65;3.75;;;10.40;99.90;;;;;;5046972;28;20048;-66
2022/01/29 10:10:01;;;;;;;10.65;3.55;;;10.40;99.90;;;;;;5047080;28;20068;-66
2022/01/29 10:12:29;;;;;;;7.13;3.22;;;10.40;99.90;;;;;;5048928;28;20380;-68
2022/01/29 10:15:00;;;;;;;9.82;4.15;;;10.40;99.90;;;;;;5047735;28;20128;-67
2022/01/29 10:17:50;;;;;;;12.88;3.42;;;10.40;99.90;;;;;;5048031;28;20397;-67
2022/01/29 10:20:34;;;;;;;14.45;3.67;;;10.50;99.90;;;;;;5035000;28;20485;-66
2022/01/29 10:23:01;;;;;;;11.10;4.00;;;10.40;99.90;;;;;;5028586;28;20414;-67
2022/01/29 10:25:32;;;;;;;10.27;3.15;;;10.50;99.90;;;;;;5027438;28;20084;-67
2022/01/29 10:28:14;;;;;;;7.45;2.80;;;10.50;99.90;;;;;;5030915;28;20654;-67
2022/01/29 10:30:48;;;;;;;8.77;3.10;;;10.50;99.90;;;;;;5027370;28;20045;-67
2022/01/29 10:33:21;;;;;;;8.38;2.47;;;10.50;99.90;;;;;;5035344;28;20123;-67
2022/01/29 10:35:49;;;;;;;8.57;2.83;;;10.50;99.90;;;;;;5043943;28;20048;-67
2022/01/29 10:38:26;;;;;;;5.70;2.40;;;10.60;99.90;;;;;;5049848;28;20069;-67
2022/01/29 10:41:11;;;;;;;8.75;2.85;;;10.60;99.90;;;;;;5049960;28;20080;-67
2022/01/29 10:44:13;;;;;;;8.02;2.58;;;10.70;99.90;;;;;;5048461;28;20382;-67
2022/01/29 10:46:45;;;;;;;8.18;3.00;;;10.60;99.90;;;;;;5046452;28;20114;-66
2022/01/29 10:49:28;;;;;;;6.80;2.45;;;10.70;99.90;;;;;;5027314;28;20045;-67
2022/01/29 10:52:08;;;;;;;13.50;3.50;;;10.70;99.90;;;;;;5031302;28;20108;-66
2022/01/29 10:54:36;;;;;;;5.38;2.50;;;10.60;99.90;;;;;;5047840;28;20052;-66
2022/01/29 10:57:05;;;;;;;9.95;2.83;;;10.70;99.90;;;;;;5046071;28;20040;-66
2022/01/29 10:59:34;;;;;;;5.57;2.17;;;10.70;99.90;;;;;;5047633;28;20053;-65
2022/01/29 11:02:05;;;;;;;6.93;2.55;;;11.90;99.90;;;;;;5047042;28;20040;-67
2022/01/29 11:04:34;;;;;;;9.27;2.45;;;10.70;99.90;;;;;;5042322;28;20448;-66
2022/01/29 11:07:04;;;;;;;13.85;3.03;;;10.70;99.90;;;;;;5047912;28;20041;-66
2022/01/29 11:09:31;;;;;;;8.63;2.33;;;10.70;99.90;;;;;;5047445;28;20049;-66
2022/01/29 11:12:00;;;;;;;9.30;2.58;;;10.70;99.90;;;;;;5047972;28;20041;-66
2022/01/29 11:14:28;;;;;;;9.57;2.92;;;10.70;99.90;;;;;;5030404;28;20064;-67
2022/01/29 11:16:53;;;;;;;8.07;2.33;;;10.80;99.90;;;;;;5046747;28;20354;-66
2022/01/29 11:19:20;;;;;;;9.05;2.78;;;12.00;99.90;;;;;;5044121;28;20040;-67
2022/01/29 11:21:50;;;;;;;11.15;2.85;;;10.80;99.90;;;;;;5046177;28;20161;-67
2022/01/29 11:24:19;;;;;;;5.68;2.58;;;10.80;99.90;;;;;;5047934;28;20052;-67
2022/01/29 11:26:45;;;;;;;9.48;2.78;;;10.80;99.90;;;;;;5026608;28;20053;-67
2022/01/29 11:29:36;;;;;;;9.43;2.65;;;10.80;99.90;;;;;;5047718;28;20040;-67
2022/01/29 11:32:20;;;;;;;8.60;2.53;;;10.80;99.90;;;;;;5047890;28;20045;-67
2022/01/29 11:35:10;;;;;;;7.80;2.78;;;10.90;99.90;;;;;;5044970;28;20056;-67
2022/01/29 11:37:43;;;;;;;8.88;2.50;;;10.90;99.90;;;;;;5043415;28;20146;-67
2022/01/29 11:40:21;;;;;;;5.65;2.10;;;10.80;99.90;;;;;;5043941;28;20667;-67
2022/01/29 11:42:54;;;;;;;8.52;2.67;;;10.90;99.90;;;;;;5047504;28;20222;-67
2022/01/29 11:45:44;;;;;;;5.38;2.10;;;10.90;99.90;;;;;;5045733;28;20049;-67
2022/01/29 11:48:29;;;;;;;9.60;2.42;;;10.90;99.90;;;;;;5047160;28;20122;-67
2022/01/29 11:51:06;;;;;;;3.90;2.00;;;11.00;99.90;;;;;;5046558;28;20088;-67
2022/01/29 11:53:44;;;;;;;11.02;2.58;;;11.10;99.90;;;;;;5045469;28;20123;-67
2022/01/29 11:56:24;;;;;;;6.82;2.20;;;11.00;99.90;;;;;;5048308;28;20041;-67
2022/01/29 11:59:19;;;;;;;10.55;2.60;;;11.10;99.90;;;;;;5037466;28;20050;-67
2022/01/29 12:01:52;;;;;;;9.75;2.20;;;11.10;99.90;;;;;;5030385;28;20105;-67
2022/01/29 12:04:20;;;;;;;11.02;2.65;;;11.00;99.90;;;;;;5028863;28;20042;-67
2022/01/29 12:07:26;;;;;;;6.55;2.20;;;11.10;99.90;;;;;;5032444;28;20128;-67
2022/01/29 12:10:07;;;;;;;7.07;2.20;;;11.20;99.90;;;;;;5042145;28;20049;-67
2022/01/29 12:12:44;;;;;;;6.07;2.05;;;11.30;99.90;;;;;;5050545;28;20048;-67
2022/01/29 12:15:10;;;;;;;6.43;1.92;;;11.30;99.90;;;;;;5048624;28;20105;-67
2022/01/29 12:17:37;;;;;;;8.48;2.50;;;11.70;99.90;;;;;;5030865;28;20122;-67
2022/01/29 12:20:05;;;;;;;10.00;2.45;;;11.40;99.90;;;;;;5029975;28;20045;-67
2022/01/29 12:22:36;;;;;;;6.82;1.90;;;11.60;99.90;;;;;;5030081;28;20556;-67
2022/01/29 12:25:14;;;;;;;7.35;1.92;;;11.80;99.90;;;;;;5031140;28;20095;-67
2022/01/29 12:27:50;;;;;;;11.25;2.50;;;11.80;99.90;;;;;;5030403;28;20052;-67
2022/01/29 12:30:19;;;;;;;;;;;11.70;99.90;;;;;;5030010;28;20120;-67
2022/01/29 12:33:10;;;;;;;9.82;2.10;;;11.60;99.90;;;;;;5030684;28;19964;-67
2022/01/29 12:35:49;;;;;;;7.07;2.10;;;11.60;99.90;;;;;;5029273;28;20045;-67
2022/01/29 12:38:39;;;;;;;9.00;2.38;;;11.70;99.90;;;;;;5030312;28;20363;-67
2022/01/29 12:41:09;;;;;;;9.45;2.42;;;11.80;99.90;;;;;;5046627;28;20053;-66
2022/01/29 12:43:52;;;;;;;7.70;2.10;;;11.70;99.90;;;;;;5045069;28;20409;-67
2022/01/29 12:46:23;;;;;;;9.20;2.47;;;12.50;99.90;;;;;;5029737;28;20450;-67
2022/01/29 12:49:11;;;;;;;9.93;2.45;;;11.60;99.90;;;;;;5034666;28;20055;-68
2022/01/29 12:51:59;;;;;;;7.22;2.25;;;11.60;99.90;;;;;;5046392;28;20495;-68
2022/01/29 12:54:28;;;;;;;9.77;2.00;;;11.60;99.90;;;;;;5046674;28;20033;-66
2022/01/29 12:56:55;;;;;;;5.80;2.05;;;11.70;99.90;;;;;;5049379;28;20041;-66